createdAt,value
2019-05-01T00:02:46.869Z,11.11
2019-05-01T00:05:27.627Z,11.13
2019-05-01T00:08:01.276Z,11.16
2019-05-01T00:10:35.870Z,11.12
2019-05-01T00:13:14.633Z,11.11
2019-05-01T00:15:55.940Z,11.20
2019-05-01T00:18:31.324Z,11.22
2019-05-01T00:21:09.652Z,11.28
2019-05-01T00:23:45.373Z,11.32
2019-05-01T00:26:21.154Z,11.28
2019-05-01T00:29:05.584Z,11.17
2019-05-01T00:31:41.281Z,11.12
2019-05-01T00:34:16.712Z,11.09
2019-05-01T00:36:49.983Z,10.92
2019-05-01T00:39:23.764Z,10.92
2019-05-01T00:41:59.689Z,10.86
2019-05-01T00:44:37.501Z,10.82
2019-05-01T00:47:11.055Z,10.69
2019-05-01T00:49:45.511Z,10.71
2019-05-01T00:52:18.806Z,10.71
2019-05-01T00:54:54.955Z,10.72
2019-05-01T00:57:42.709Z,10.67
2019-05-01T01:00:42.844Z,10.73
2019-05-01T01:03:11.318Z,10.78
2019-05-01T01:05:44.874Z,10.70
2019-05-01T01:08:18.502Z,10.68
2019-05-01T01:10:51.804Z,10.66
2019-05-01T01:13:25.215Z,10.72
2019-05-01T01:15:58.952Z,10.71
2019-05-01T01:18:32.130Z,10.66
2019-05-01T01:21:05.478Z,10.52
2019-05-01T01:23:40.001Z,10.43
2019-05-01T01:26:13.348Z,10.47
2019-05-01T01:28:46.891Z,10.52
2019-05-01T01:31:20.090Z,10.51
2019-05-01T01:33:54.545Z,10.54
2019-05-01T01:36:27.746Z,10.54
2019-05-01T01:39:03.995Z,10.51
2019-05-01T01:41:39.165Z,10.51
2019-05-01T01:44:27.980Z,10.40
2019-05-01T01:47:01.507Z,10.30
2019-05-01T01:49:35.316Z,10.16
2019-05-01T01:52:08.649Z,10.05
2019-05-01T01:54:42.045Z,10.04
2019-05-01T01:57:15.441Z,10.04
2019-05-01T01:59:48.916Z,10.06
2019-05-01T02:02:50.305Z,10.08
2019-05-01T02:05:27.677Z,10.04
2019-05-01T02:08:01.119Z,10.00
2019-05-01T02:10:42.582Z,9.99
2019-05-01T02:13:09.652Z,9.89
2019-05-01T02:15:42.986Z,9.71
2019-05-01T02:18:16.250Z,9.52
2019-05-01T02:20:49.636Z,9.42
2019-05-01T02:23:22.648Z,9.46
2019-05-01T02:25:56.030Z,9.36
2019-05-01T02:28:44.516Z,9.19
2019-05-01T02:31:37.999Z,9.20
2019-05-01T02:34:12.320Z,9.12
2019-05-01T02:36:48.517Z,9.08
2019-05-01T02:39:25.133Z,9.11
2019-05-01T02:42:01.924Z,9.18
2019-05-01T02:44:45.211Z,9.20
2019-05-01T02:47:27.171Z,9.21
2019-05-01T02:50:10.881Z,9.18
2019-05-01T02:52:45.439Z,9.08
2019-05-01T02:55:28.366Z,9.02
2019-05-01T02:58:02.665Z,8.92
2019-05-01T03:00:36.815Z,8.82
2019-05-01T03:03:10.359Z,8.79
2019-05-01T03:05:46.166Z,8.61
2019-05-01T03:08:19.375Z,8.60
2019-05-01T03:10:52.668Z,8.61
2019-05-01T03:13:28.147Z,8.58
2019-05-01T03:16:02.128Z,8.54
2019-05-01T03:18:39.185Z,8.54
2019-05-01T03:21:23.982Z,8.50
2019-05-01T03:24:05.167Z,8.34
2019-05-01T03:26:38.688Z,8.31
2019-05-01T03:29:11.692Z,8.31
2019-05-01T03:31:45.085Z,8.28
2019-05-01T03:34:18.620Z,8.28
2019-05-01T03:36:52.073Z,8.23
2019-05-01T03:39:25.873Z,8.16
2019-05-01T03:42:00.121Z,8.08
2019-05-01T03:44:33.429Z,8.03
2019-05-01T03:47:07.197Z,7.95
2019-05-01T03:49:40.705Z,7.97
2019-05-01T03:52:13.950Z,7.95
2019-05-01T03:54:47.181Z,7.96
2019-05-01T03:57:22.424Z,7.96
2019-05-01T03:59:56.865Z,7.97
2019-05-01T04:02:40.581Z,7.95
2019-05-01T04:05:16.326Z,7.91
2019-05-01T04:07:50.085Z,7.86
2019-05-01T04:10:23.651Z,7.86
2019-05-01T04:12:56.757Z,7.98
2019-05-01T04:15:52.656Z,8.12
2019-05-01T04:18:27.940Z,8.16
2019-05-01T04:21:06.216Z,8.05
2019-05-01T04:23:43.290Z,8.02
2019-05-01T04:26:19.970Z,8.02
2019-05-01T04:29:36.157Z,8.07
2019-05-01T04:32:13.811Z,8.12
2019-05-01T04:35:26.376Z,8.22
2019-05-01T04:38:07.054Z,8.35
2019-05-01T04:40:40.693Z,8.55
2019-05-01T04:43:18.411Z,8.60
2019-05-01T04:45:54.903Z,8.68
2019-05-01T04:48:29.687Z,8.70
2019-05-01T04:51:03.257Z,8.80
2019-05-01T04:53:37.591Z,8.90
2019-05-01T04:56:39.672Z,9.02
2019-05-01T04:59:23.060Z,9.09
2019-05-01T05:02:03.055Z,9.26
2019-05-01T05:04:40.780Z,9.25
2019-05-01T05:07:16.225Z,9.14
2019-05-01T05:09:53.039Z,9.14
2019-05-01T05:12:51.840Z,9.14
2019-05-01T05:15:39.617Z,9.16
2019-05-01T05:18:17.180Z,9.16
2019-05-01T05:20:54.022Z,9.20
2019-05-01T05:23:29.096Z,9.35
2019-05-01T05:26:06.411Z,9.50
2019-05-01T05:28:42.475Z,9.65
2019-05-01T05:31:48.374Z,9.75
2019-05-01T05:34:26.401Z,9.87
2019-05-01T05:37:05.741Z,9.95
2019-05-01T05:39:44.896Z,10.01
2019-05-01T05:42:29.736Z,10.05
2019-05-01T05:45:12.512Z,10.03
2019-05-01T05:47:53.676Z,10.12
2019-05-01T05:50:29.286Z,10.23
2019-05-01T05:53:16.288Z,10.36
2019-05-01T05:55:56.428Z,10.43
2019-05-01T05:58:48.878Z,10.54
2019-05-01T06:01:44.636Z,10.52
2019-05-01T06:05:05.764Z,10.66
2019-05-01T06:08:05.570Z,10.72
2019-05-01T06:11:03.845Z,10.86
2019-05-01T06:14:35.383Z,10.97
2019-05-01T06:17:28.476Z,11.07
2019-05-01T06:20:27.498Z,11.17
2019-05-01T06:23:27.044Z,11.26
2019-05-01T06:26:23.983Z,11.40
2019-05-01T06:29:00.726Z,11.38
2019-05-01T06:31:38.773Z,11.40
2019-05-01T06:34:32.344Z,11.44
2019-05-01T06:36:57.773Z,11.39
2019-05-01T06:39:33.151Z,11.96
2019-05-01T06:42:09.815Z,11.92
2019-05-01T06:44:49.814Z,12.11
2019-05-01T06:50:52.224Z,12.70
2019-05-01T06:53:26.835Z,12.93
2019-05-01T06:56:00.870Z,13.38
2019-05-01T06:58:35.179Z,13.60
2019-05-01T07:01:08.709Z,13.83
2019-05-01T07:03:46.949Z,14.12
2019-05-01T07:06:16.780Z,14.29
2019-05-01T07:08:50.332Z,14.51
2019-05-01T07:11:23.628Z,14.88
2019-05-01T07:14:11.134Z,15.12
2019-05-01T07:16:40.543Z,15.38
2019-05-01T07:19:14.329Z,15.56
2019-05-01T07:21:47.758Z,15.78
2019-05-01T07:24:24.119Z,16.16
2019-05-01T07:26:55.400Z,16.38
2019-05-01T07:29:32.681Z,16.72
2019-05-01T07:32:06.436Z,17.02
2019-05-01T07:34:39.882Z,17.17
2019-05-01T07:37:13.049Z,17.43
2019-05-01T07:39:49.878Z,17.65
2019-05-01T07:42:29.210Z,17.81
2019-05-01T07:45:26.555Z,17.97
2019-05-01T07:48:05.633Z,18.07
2019-05-01T07:50:39.552Z,18.35
2019-05-01T07:53:13.743Z,18.23
2019-05-01T07:55:48.584Z,18.11
2019-05-01T07:58:25.029Z,18.40
2019-05-01T08:01:18.359Z,18.69
2019-05-01T08:03:53.129Z,19.03
2019-05-01T08:06:33.774Z,18.94
2019-05-01T08:09:11.359Z,19.12
2019-05-01T08:11:50.529Z,19.52
2019-05-01T08:14:24.342Z,19.45
2019-05-01T08:17:05.450Z,19.43
2019-05-01T08:19:50.644Z,19.46
2019-05-01T08:22:26.628Z,19.75
2019-05-01T08:25:06.219Z,19.72
2019-05-01T08:27:56.268Z,20.03
2019-05-01T08:30:56.623Z,20.19
2019-05-01T08:33:51.513Z,20.13
2019-05-01T08:36:22.042Z,20.06
2019-05-01T08:38:55.125Z,19.86
2019-05-01T08:41:31.758Z,19.95
2019-05-01T08:44:06.107Z,20.11
2019-05-01T08:46:50.956Z,20.14
2019-05-01T08:49:49.506Z,20.44
2019-05-01T08:52:18.428Z,20.55
2019-05-01T08:54:55.026Z,20.31
2019-05-01T08:57:29.254Z,20.30
2019-05-01T09:00:02.755Z,20.61
2019-05-01T09:02:36.684Z,20.84
2019-05-01T09:05:27.861Z,20.72
2019-05-01T09:07:56.014Z,21.12
2019-05-01T09:10:29.383Z,21.24
2019-05-01T09:13:18.888Z,21.29
2019-05-01T09:15:54.360Z,21.38
2019-05-01T09:18:27.398Z,21.22
2019-05-01T09:21:00.388Z,21.01
2019-05-01T09:23:34.644Z,20.83
2019-05-01T09:26:27.141Z,21.14
2019-05-01T09:29:03.664Z,21.31
2019-05-01T09:31:37.068Z,21.88
2019-05-01T09:34:14.008Z,22.22
2019-05-01T09:36:44.744Z,22.12
2019-05-01T09:39:19.376Z,22.32
2019-05-01T09:41:52.433Z,22.57
2019-05-01T09:44:25.409Z,22.34
2019-05-01T09:46:58.462Z,22.27
2019-05-01T09:49:31.592Z,22.27
2019-05-01T09:52:24.900Z,22.43
2019-05-01T09:55:12.456Z,22.66
2019-05-01T09:57:45.610Z,22.54
2019-05-01T10:00:26.049Z,22.63
2019-05-01T10:02:59.829Z,22.80
2019-05-01T10:05:33.581Z,23.11
2019-05-01T10:08:09.481Z,23.35
2019-05-01T10:10:43.917Z,23.39
2019-05-01T10:13:17.731Z,23.74
2019-05-01T10:15:53.109Z,24.07
2019-05-01T10:18:26.147Z,23.38
2019-05-01T10:20:59.522Z,23.41
2019-05-01T10:23:32.579Z,23.84
2019-05-01T10:26:08.126Z,24.05
2019-05-01T10:28:57.552Z,24.09
2019-05-01T10:32:04.784Z,24.44
2019-05-01T10:34:56.924Z,25.11
2019-05-01T10:37:33.747Z,24.48
2019-05-01T10:40:05.364Z,24.36
2019-05-01T10:42:40.975Z,23.94
2019-05-01T10:45:13.245Z,23.74
2019-05-01T10:47:46.271Z,23.79
2019-05-01T10:50:19.165Z,23.93
2019-05-01T10:52:52.110Z,24.11
2019-05-01T10:55:25.020Z,23.65
2019-05-01T10:57:57.848Z,23.76
2019-05-01T11:00:30.797Z,24.27
2019-05-01T11:03:03.728Z,23.77
2019-05-01T11:05:36.768Z,22.60
2019-05-01T11:08:09.691Z,22.18
2019-05-01T11:10:42.645Z,21.58
2019-05-01T11:13:15.654Z,21.24
2019-05-01T11:15:48.835Z,21.35
2019-05-01T11:18:21.748Z,21.60
2019-05-01T11:20:56.122Z,21.43
2019-05-01T11:23:29.471Z,21.25
2019-05-01T11:26:02.835Z,20.95
2019-05-01T11:28:37.503Z,21.04
2019-05-01T11:31:12.243Z,20.85
2019-05-01T11:34:03.996Z,20.93
2019-05-01T11:37:07.444Z,20.95
2019-05-01T11:39:46.002Z,20.82
2019-05-01T11:42:19.196Z,21.48
2019-05-01T11:44:52.438Z,21.87
2019-05-01T11:47:26.406Z,21.82
2019-05-01T11:50:01.578Z,21.55
2019-05-01T11:52:41.035Z,21.48
2019-05-01T11:55:15.210Z,21.37
2019-05-01T11:57:48.113Z,21.08
2019-05-01T12:00:24.303Z,20.77
2019-05-01T12:03:00.976Z,20.29
2019-05-01T12:05:37.812Z,19.96
2019-05-01T12:08:13.164Z,19.97
2019-05-01T12:11:00.748Z,19.86
2019-05-01T12:13:44.097Z,19.93
2019-05-01T12:16:39.335Z,19.88
2019-05-01T12:19:12.708Z,19.97
2019-05-01T12:21:53.015Z,19.99
2019-05-01T12:24:28.666Z,20.11
2019-05-01T12:27:05.158Z,20.17
2019-05-01T12:29:38.237Z,20.05
2019-05-01T12:32:11.096Z,20.12
2019-05-01T12:34:43.935Z,20.23
2019-05-01T12:37:21.576Z,20.57
2019-05-01T12:39:54.625Z,20.82
2019-05-01T12:42:27.840Z,21.02
2019-05-01T12:45:02.207Z,20.98
2019-05-01T12:47:40.946Z,21.02
2019-05-01T12:50:14.788Z,20.94
2019-05-01T12:53:06.701Z,20.61
2019-05-01T12:56:01.463Z,20.28
2019-05-01T12:58:38.215Z,19.95
2019-05-01T13:01:11.197Z,20.04
2019-05-01T13:03:45.903Z,20.25
2019-05-01T13:06:18.802Z,20.37
2019-05-01T13:08:51.698Z,20.33
2019-05-01T13:11:24.638Z,20.78
2019-05-01T13:13:57.723Z,20.84
2019-05-01T13:16:31.471Z,20.94
2019-05-01T13:19:04.581Z,21.03
2019-05-01T13:21:37.702Z,21.02
2019-05-01T13:24:11.802Z,21.11
2019-05-01T13:26:54.897Z,21.04
2019-05-01T13:29:41.286Z,20.72
2019-05-01T13:32:32.377Z,20.29
2019-05-01T13:35:05.628Z,20.22
2019-05-01T13:37:38.747Z,20.14
2019-05-01T13:40:12.557Z,20.02
2019-05-01T13:42:45.675Z,19.91
2019-05-01T13:45:18.870Z,19.90
2019-05-01T13:47:54.540Z,19.90
2019-05-01T13:50:29.346Z,19.78
2019-05-01T13:53:02.531Z,19.75
2019-05-01T13:55:35.607Z,19.68
2019-05-01T13:58:08.898Z,19.56
2019-05-01T14:00:41.940Z,19.40
2019-05-01T14:03:16.664Z,18.91
2019-05-01T14:05:49.574Z,18.18
2019-05-01T14:08:22.800Z,17.60
2019-05-01T14:10:56.196Z,17.41
2019-05-01T14:13:29.141Z,17.44
2019-05-01T14:16:02.126Z,17.42
2019-05-01T14:18:35.096Z,17.48
2019-05-01T14:21:29.785Z,17.49
2019-05-01T14:24:19.608Z,17.68
2019-05-01T14:26:52.479Z,17.84
2019-05-01T14:29:25.302Z,18.01
2019-05-01T14:32:01.906Z,18.18
2019-05-01T14:34:35.086Z,18.26
2019-05-01T14:37:08.016Z,18.33
2019-05-01T14:39:41.324Z,18.52
2019-05-01T14:42:14.302Z,18.57
2019-05-01T14:44:47.200Z,18.63
2019-05-01T14:47:20.070Z,18.66
2019-05-01T14:49:53.222Z,18.62
2019-05-01T14:52:26.159Z,18.65
2019-05-01T14:54:59.129Z,18.69
2019-05-01T14:57:32.087Z,18.77
2019-05-01T15:00:05.557Z,18.79
2019-05-01T15:02:39.698Z,18.88
2019-05-01T15:05:12.876Z,18.93
2019-05-01T15:07:45.761Z,18.80
2019-05-01T15:10:18.613Z,18.84
2019-05-01T15:12:53.292Z,18.86
2019-05-01T15:15:41.617Z,18.83
2019-05-01T15:18:31.338Z,18.76
2019-05-01T15:21:04.242Z,18.69
2019-05-01T15:23:37.375Z,18.66
2019-05-01T15:26:10.806Z,18.60
2019-05-01T15:28:43.800Z,18.60
2019-05-01T15:31:17.033Z,18.54
2019-05-01T15:33:52.475Z,18.54
2019-05-01T15:36:26.346Z,18.51
2019-05-01T15:39:00.022Z,18.55
2019-05-01T15:41:52.206Z,18.59
2019-05-01T15:44:28.140Z,18.61
2019-05-01T15:47:01.232Z,18.54
2019-05-01T15:49:36.087Z,18.52
2019-05-01T15:52:09.027Z,18.53
2019-05-01T15:54:42.062Z,18.46
2019-05-01T15:57:15.148Z,18.46
2019-05-01T15:59:48.418Z,18.51
2019-05-01T16:02:21.466Z,18.50
2019-05-01T16:04:54.365Z,18.62
2019-05-01T16:07:27.708Z,18.71
2019-05-01T16:10:00.674Z,18.80
2019-05-01T16:12:39.070Z,18.81
2019-05-01T16:15:18.690Z,18.83
2019-05-01T16:17:51.601Z,18.80
2019-05-01T16:20:24.599Z,18.66
2019-05-01T16:22:57.788Z,18.71
2019-05-01T16:25:31.231Z,18.78
2019-05-01T16:28:08.125Z,18.75
2019-05-01T16:30:41.114Z,18.76
2019-05-01T16:33:14.006Z,18.76
2019-05-01T16:35:46.987Z,18.73
2019-05-01T16:38:26.714Z,18.82
2019-05-01T16:41:08.068Z,18.84
2019-05-01T16:43:40.937Z,18.88
2019-05-01T16:46:13.913Z,18.90
2019-05-01T16:48:46.965Z,18.88
2019-05-01T16:51:19.787Z,18.88
2019-05-01T16:53:52.709Z,18.88
2019-05-01T16:56:28.126Z,18.86
2019-05-01T16:59:01.018Z,18.70
2019-05-01T17:01:55.552Z,18.69
2019-05-01T17:04:40.880Z,18.73
2019-05-01T17:07:30.421Z,18.59
2019-05-01T17:10:15.660Z,18.47
2019-05-01T17:12:51.626Z,18.38
2019-05-01T17:15:36.585Z,18.26
2019-05-01T17:18:11.442Z,18.13
2019-05-01T17:20:48.424Z,18.01
2019-05-01T17:23:21.350Z,17.97
2019-05-01T17:25:54.373Z,17.93
2019-05-01T17:28:27.463Z,17.81
2019-05-01T17:31:07.118Z,17.63
2019-05-01T17:33:39.930Z,17.59
2019-05-01T17:36:12.795Z,17.54
2019-05-01T17:38:49.653Z,17.51
2019-05-01T17:41:22.632Z,17.48
2019-05-01T17:43:56.716Z,17.47
2019-05-01T17:46:29.524Z,17.47
2019-05-01T17:49:04.094Z,17.42
2019-05-01T17:51:37.016Z,17.40
2019-05-01T17:54:10.060Z,17.40
2019-05-01T17:56:43.602Z,17.40
2019-05-01T17:59:16.823Z,17.37
2019-05-01T18:02:11.397Z,17.29
2019-05-01T18:04:55.756Z,17.26
2019-05-01T18:07:33.317Z,17.23
2019-05-01T18:10:05.280Z,17.18
2019-05-01T18:12:38.376Z,17.12
2019-05-01T18:15:11.926Z,17.08
2019-05-01T18:17:44.953Z,17.07
2019-05-01T18:20:19.989Z,17.05
2019-05-01T18:23:18.395Z,17.02
2019-05-01T18:26:08.819Z,16.98
2019-05-01T18:28:47.362Z,16.89
2019-05-01T18:31:23.302Z,16.84
2019-05-01T18:34:01.708Z,16.82
2019-05-01T18:36:36.798Z,16.78
2019-05-01T18:39:25.711Z,16.72
2019-05-01T18:42:00.130Z,16.71
2019-05-01T18:44:33.099Z,16.62
2019-05-01T18:47:06.556Z,16.54
2019-05-01T18:49:40.173Z,16.41
2019-05-01T18:52:13.838Z,16.31
2019-05-01T18:54:47.111Z,16.25
2019-05-01T18:57:20.552Z,16.21
2019-05-01T19:00:02.480Z,16.13
2019-05-01T19:02:35.861Z,16.06
2019-05-01T19:05:10.719Z,15.96
2019-05-01T19:07:44.119Z,15.92
2019-05-01T19:10:17.407Z,15.85
2019-05-01T19:12:52.023Z,15.81
2019-05-01T19:15:27.130Z,15.76
2019-05-01T19:18:04.970Z,15.72
2019-05-01T19:20:38.390Z,15.68
2019-05-01T19:23:11.643Z,15.55
2019-05-01T19:25:44.686Z,15.48
2019-05-01T19:28:18.355Z,15.39
2019-05-01T19:30:51.753Z,15.37
2019-05-01T19:33:28.907Z,15.28
2019-05-01T19:36:02.475Z,15.23
2019-05-01T19:38:39.788Z,15.16
2019-05-01T19:41:14.677Z,15.08
2019-05-01T19:43:48.546Z,15.01
2019-05-01T19:46:22.017Z,14.96
2019-05-01T19:48:55.234Z,14.88
2019-05-01T19:51:28.529Z,14.84
2019-05-01T19:54:01.897Z,14.84
2019-05-01T19:56:35.318Z,14.78
2019-05-01T19:59:08.736Z,14.77
2019-05-01T20:01:44.638Z,14.72
2019-05-01T20:04:17.851Z,14.62
2019-05-01T20:06:51.226Z,14.61
2019-05-01T20:09:24.757Z,14.57
2019-05-01T20:11:57.938Z,14.44
2019-05-01T20:14:31.755Z,14.47
2019-05-01T20:17:10.116Z,14.50
2019-05-01T20:19:40.536Z,14.49
2019-05-01T20:22:13.681Z,14.52
2019-05-01T20:24:46.875Z,14.51
2019-05-01T20:27:22.631Z,14.49
2019-05-01T20:29:55.920Z,14.46
2019-05-01T20:32:29.140Z,14.45
2019-05-01T20:35:02.384Z,14.36
2019-05-01T20:37:35.719Z,14.19
2019-05-01T20:40:11.280Z,14.03
2019-05-01T20:42:44.252Z,13.98
2019-05-01T20:45:18.636Z,14.02
2019-05-01T20:47:54.315Z,14.03
2019-05-01T20:50:27.297Z,14.03
2019-05-01T20:53:01.030Z,14.03
2019-05-01T20:55:35.159Z,14.04
2019-05-01T20:58:16.907Z,14.04
2019-05-01T21:00:55.712Z,14.06
2019-05-01T21:03:29.146Z,14.01
2019-05-01T21:06:18.353Z,13.96
2019-05-01T21:09:13.868Z,13.91
2019-05-01T21:11:49.527Z,13.85
2019-05-01T21:14:23.145Z,13.83
2019-05-01T21:16:56.477Z,13.78
2019-05-01T21:19:32.526Z,13.77
2019-05-01T21:22:08.045Z,13.78
2019-05-01T21:24:40.959Z,13.73
2019-05-01T21:27:13.914Z,13.75
2019-05-01T21:29:46.968Z,13.75
2019-05-01T21:32:26.116Z,13.72
2019-05-01T21:34:54.528Z,13.64
2019-05-01T21:37:27.506Z,13.58
2019-05-01T21:40:02.611Z,13.50
2019-05-01T21:42:35.975Z,13.47
2019-05-01T21:45:12.306Z,13.40
2019-05-01T21:47:45.077Z,13.34
2019-05-01T21:50:24.879Z,13.15
2019-05-01T21:52:53.789Z,13.01
2019-05-01T21:55:30.153Z,12.98
2019-05-01T21:58:01.632Z,12.89
2019-05-01T22:00:39.015Z,12.90
2019-05-01T22:03:16.698Z,12.82
2019-05-01T22:05:48.502Z,12.83
2019-05-01T22:08:21.547Z,12.83
2019-05-01T22:10:57.492Z,12.77
2019-05-01T22:13:29.239Z,12.74
2019-05-01T22:16:12.547Z,12.67
2019-05-01T22:19:10.338Z,12.62
2019-05-01T22:21:54.356Z,12.62
2019-05-01T22:24:45.107Z,12.64
2019-05-01T22:27:21.815Z,12.64
2019-05-01T22:30:10.737Z,12.58
2019-05-01T22:32:46.884Z,12.49
2019-05-01T22:35:22.633Z,12.41
2019-05-01T22:37:56.121Z,12.36
2019-05-01T22:40:50.902Z,12.27
2019-05-01T22:43:25.437Z,12.24
2019-05-01T22:46:01.598Z,12.21
2019-05-01T22:48:33.655Z,12.17
2019-05-01T22:51:21.145Z,12.13
2019-05-01T22:53:57.409Z,12.11
2019-05-01T22:56:30.491Z,12.00
2019-05-01T22:59:03.455Z,11.99
2019-05-01T23:01:36.854Z,11.95
2019-05-01T23:04:12.181Z,11.89
2019-05-01T23:06:44.888Z,11.81
2019-05-01T23:09:23.477Z,11.68
2019-05-01T23:11:54.549Z,11.50
2019-05-01T23:14:28.774Z,11.43
2019-05-01T23:17:13.171Z,11.30
2019-05-01T23:19:46.409Z,11.15
2019-05-01T23:22:19.955Z,10.97
2019-05-01T23:24:53.109Z,10.84
2019-05-01T23:27:29.387Z,10.76
2019-05-01T23:30:01.399Z,10.68
2019-05-01T23:32:35.109Z,10.60
2019-05-01T23:35:08.415Z,10.53
2019-05-01T23:37:41.799Z,10.51
2019-05-01T23:40:16.969Z,10.48
2019-05-01T23:42:53.675Z,10.52
2019-05-01T23:45:24.746Z,10.61
2019-05-01T23:47:57.993Z,10.69
2019-05-01T23:50:34.027Z,10.75
2019-05-01T23:53:09.049Z,10.73
2019-05-01T23:55:41.935Z,10.79
2019-05-01T23:58:15.202Z,10.79
